createdAt,value
2018-08-23T00:00:51.919Z,18.40
2018-08-23T00:03:25.720Z,18.30
2018-08-23T00:05:55.242Z,18.30
2018-08-23T00:08:24.471Z,18.30
2018-08-23T00:10:53.847Z,18.30
2018-08-23T00:13:22.829Z,18.30
2018-08-23T00:15:51.642Z,18.30
2018-08-23T00:18:20.185Z,18.30
2018-08-23T00:20:48.692Z,18.20
2018-08-23T00:23:17.281Z,18.30
2018-08-23T00:25:45.748Z,18.20
2018-08-23T00:28:14.238Z,18.20
2018-08-23T00:30:43.557Z,18.10
2018-08-23T00:33:11.997Z,18.10
2018-08-23T00:35:40.545Z,18.10
2018-08-23T00:38:09.206Z,18.00
2018-08-23T00:40:40.665Z,18.00
2018-08-23T00:43:10.466Z,17.90
2018-08-23T00:45:39.057Z,17.90
2018-08-23T00:48:07.566Z,17.90
2018-08-23T00:50:56.084Z,17.90
2018-08-23T00:53:24.714Z,17.90
2018-08-23T00:56:24.066Z,17.90
2018-08-23T00:58:57.801Z,17.90
2018-08-23T01:01:26.414Z,17.90
2018-08-23T01:03:54.855Z,17.90
2018-08-23T01:06:25.382Z,17.90
2018-08-23T01:08:53.831Z,17.90
2018-08-23T01:11:22.269Z,17.80
2018-08-23T01:13:50.709Z,17.90
2018-08-23T01:16:19.143Z,17.80
2018-08-23T01:18:47.641Z,17.90
2018-08-23T01:21:16.153Z,17.90
2018-08-23T01:23:44.589Z,17.80
2018-08-23T01:26:13.135Z,17.90
2018-08-23T01:28:41.589Z,17.90
2018-08-23T01:31:23.452Z,17.90
2018-08-23T01:33:54.877Z,17.90
2018-08-23T01:36:30.933Z,17.90
2018-08-23T01:39:00.105Z,17.90
2018-08-23T01:41:28.583Z,17.80
2018-08-23T01:43:57.084Z,17.80
2018-08-23T01:46:30.764Z,17.70
2018-08-23T01:48:59.269Z,17.70
2018-08-23T01:51:27.778Z,17.70
2018-08-23T01:53:56.467Z,17.70
2018-08-23T01:56:24.918Z,17.60
2018-08-23T01:58:53.380Z,17.70
2018-08-23T02:01:22.632Z,17.70
2018-08-23T02:03:51.200Z,17.70
2018-08-23T02:06:19.753Z,17.70
2018-08-23T02:08:48.282Z,17.70
2018-08-23T02:11:16.738Z,17.60
2018-08-23T02:13:48.522Z,17.60
2018-08-23T02:16:16.966Z,17.60
2018-08-23T02:18:45.465Z,17.60
2018-08-23T02:21:13.942Z,17.60
2018-08-23T02:23:49.352Z,17.50
2018-08-23T02:26:17.864Z,17.50
2018-08-23T02:28:47.991Z,17.40
2018-08-23T02:31:16.815Z,17.30
2018-08-23T02:33:45.288Z,17.30
2018-08-23T02:36:16.826Z,17.30
2018-08-23T02:38:52.022Z,17.30
2018-08-23T02:41:20.777Z,17.30
2018-08-23T02:43:49.327Z,17.20
2018-08-23T02:46:17.934Z,17.20
2018-08-23T02:48:46.380Z,17.10
2018-08-23T02:51:14.859Z,17.10
2018-08-23T02:53:45.438Z,17.10
2018-08-23T02:56:16.598Z,17.00
2018-08-23T02:58:58.144Z,17.00
2018-08-23T03:01:30.421Z,17.00
2018-08-23T03:04:12.154Z,17.00
2018-08-23T03:07:13.009Z,17.00
2018-08-23T03:09:43.894Z,16.90
2018-08-23T03:12:14.365Z,17.00
2018-08-23T03:14:42.798Z,16.90
2018-08-23T03:17:18.332Z,16.90
2018-08-23T03:20:03.726Z,16.90
2018-08-23T03:22:33.349Z,16.80
2018-08-23T03:25:03.488Z,16.80
2018-08-23T03:27:32.440Z,16.80
2018-08-23T03:30:01.783Z,16.80
2018-08-23T03:32:30.637Z,16.80
2018-08-23T03:34:59.636Z,16.80
2018-08-23T03:37:28.322Z,16.80
2018-08-23T03:39:57.106Z,16.90
2018-08-23T03:42:26.100Z,16.80
2018-08-23T03:44:55.510Z,16.80
2018-08-23T03:47:24.499Z,16.80
2018-08-23T03:49:53.030Z,16.70
2018-08-23T03:52:23.071Z,16.70
2018-08-23T03:54:55.126Z,16.70
2018-08-23T03:57:23.623Z,16.70
2018-08-23T03:59:53.263Z,16.70
2018-08-23T04:02:22.154Z,16.60
2018-08-23T04:04:55.650Z,16.60
2018-08-23T04:07:24.233Z,16.50
2018-08-23T04:09:52.684Z,16.50
2018-08-23T04:12:21.328Z,16.50
2018-08-23T04:14:49.859Z,16.40
2018-08-23T04:17:18.300Z,16.40
2018-08-23T04:19:48.924Z,16.30
2018-08-23T04:22:17.907Z,16.30
2018-08-23T04:24:57.093Z,16.30
2018-08-23T04:27:25.702Z,16.30
2018-08-23T04:29:54.132Z,16.20
2018-08-23T04:32:28.203Z,16.20
2018-08-23T04:34:57.813Z,16.20
2018-08-23T04:37:26.821Z,16.20
2018-08-23T04:40:00.686Z,16.20
2018-08-23T04:42:29.111Z,16.20
2018-08-23T04:44:57.638Z,16.10
2018-08-23T04:47:26.085Z,16.10
2018-08-23T04:49:54.545Z,16.10
2018-08-23T04:52:23.109Z,16.10
2018-08-23T04:54:51.529Z,16.10
2018-08-23T04:57:20.019Z,16.10
2018-08-23T04:59:48.457Z,16.10
2018-08-23T05:02:17.070Z,16.10
2018-08-23T05:04:45.619Z,16.10
2018-08-23T05:07:14.143Z,16.10
2018-08-23T05:09:42.590Z,16.10
2018-08-23T05:12:11.220Z,16.10
2018-08-23T05:14:39.789Z,16.10
2018-08-23T05:17:08.254Z,16.10
2018-08-23T05:19:36.727Z,16.10
2018-08-23T05:22:05.207Z,16.10
2018-08-23T05:24:33.729Z,16.10
2018-08-23T05:27:02.215Z,16.20
2018-08-23T05:29:30.643Z,16.20
2018-08-23T05:31:59.147Z,16.30
2018-08-23T05:34:28.611Z,16.30
2018-08-23T05:36:57.146Z,16.30
2018-08-23T05:40:02.781Z,16.30
2018-08-23T05:42:47.053Z,16.30
2018-08-23T05:45:15.608Z,16.30
2018-08-23T05:47:44.141Z,16.30
2018-08-23T05:50:12.710Z,16.30
2018-08-23T05:52:41.265Z,16.30
2018-08-23T05:55:09.778Z,16.40
2018-08-23T05:57:38.408Z,16.40
2018-08-23T06:00:07.158Z,16.50
2018-08-23T06:02:35.727Z,16.50
2018-08-23T06:05:04.406Z,16.50
2018-08-23T06:07:32.994Z,16.60
2018-08-23T06:10:01.449Z,16.60
2018-08-23T06:12:32.312Z,16.60
2018-08-23T06:15:00.897Z,16.60
2018-08-23T06:17:29.359Z,16.50
2018-08-23T06:19:57.937Z,16.50
2018-08-23T06:22:26.417Z,16.50
2018-08-23T06:24:54.862Z,16.50
2018-08-23T06:27:23.447Z,16.50
2018-08-23T06:29:52.119Z,16.50
2018-08-23T06:32:20.574Z,16.50
2018-08-23T06:34:51.723Z,16.50
2018-08-23T06:37:21.664Z,16.60
2018-08-23T06:39:50.105Z,16.60
2018-08-23T06:42:18.840Z,16.60
2018-08-23T06:44:53.172Z,16.60
2018-08-23T06:47:23.278Z,16.60
2018-08-23T06:49:52.844Z,16.70
2018-08-23T06:52:29.033Z,16.80
2018-08-23T06:54:57.593Z,16.80
2018-08-23T06:57:27.417Z,16.80
2018-08-23T06:59:55.913Z,16.80
2018-08-23T07:02:24.458Z,16.90
2018-08-23T07:04:52.944Z,16.90
2018-08-23T07:07:21.422Z,16.90
2018-08-23T07:09:49.862Z,16.90
2018-08-23T07:12:18.377Z,16.90
2018-08-23T07:14:48.223Z,16.90
2018-08-23T07:17:22.244Z,17.00
2018-08-23T07:19:51.088Z,17.10
2018-08-23T07:22:25.798Z,17.10
2018-08-23T07:24:55.773Z,17.20
2018-08-23T07:27:24.456Z,17.20
2018-08-23T07:29:54.807Z,17.30
2018-08-23T07:32:24.552Z,17.40
2018-08-23T07:35:04.954Z,17.40
2018-08-23T07:37:35.540Z,17.50
2018-08-23T07:40:09.473Z,17.50
2018-08-23T07:42:38.807Z,17.50
2018-08-23T07:45:08.150Z,17.50
2018-08-23T07:47:42.900Z,17.50
2018-08-23T07:50:11.423Z,17.60
2018-08-23T07:52:44.197Z,17.70
2018-08-23T07:55:12.847Z,17.70
2018-08-23T07:57:41.878Z,17.70
2018-08-23T08:00:27.609Z,17.70
2018-08-23T08:02:56.199Z,17.60
2018-08-23T08:05:29.985Z,17.60
2018-08-23T08:07:58.469Z,17.70
2018-08-23T08:10:31.946Z,17.70
2018-08-23T08:13:00.611Z,17.80
2018-08-23T08:15:29.272Z,17.90
2018-08-23T08:18:06.958Z,17.80
2018-08-23T08:20:35.443Z,17.90
2018-08-23T08:23:03.935Z,17.90
2018-08-23T08:25:33.063Z,17.80
2018-08-23T08:28:01.623Z,17.80
2018-08-23T08:30:41.300Z,17.80
2018-08-23T08:33:11.551Z,17.80
2018-08-23T08:35:42.684Z,17.80
2018-08-23T08:38:12.287Z,17.90
2018-08-23T08:40:41.117Z,17.90
2018-08-23T08:43:09.617Z,17.90
2018-08-23T08:45:38.221Z,18.00
2018-08-23T08:48:23.685Z,18.10
2018-08-23T08:51:08.749Z,18.10
2018-08-23T08:53:37.229Z,18.30
2018-08-23T08:56:06.156Z,18.30
2018-08-23T08:58:34.941Z,18.20
2018-08-23T09:01:03.497Z,18.20
2018-08-23T09:03:33.960Z,18.20
2018-08-23T09:06:04.412Z,18.10
2018-08-23T09:08:33.322Z,18.10
2018-08-23T09:11:01.878Z,18.20
2018-08-23T09:13:35.694Z,18.20
2018-08-23T09:16:06.908Z,18.20
2018-08-23T09:18:36.575Z,18.20
2018-08-23T09:21:05.211Z,18.30
2018-08-23T09:23:34.437Z,18.40
2018-08-23T09:26:03.315Z,18.50
2018-08-23T09:28:31.893Z,18.50
2018-08-23T09:31:00.351Z,18.60
2018-08-23T09:33:29.471Z,18.50
2018-08-23T09:35:58.081Z,18.40
2018-08-23T09:38:26.581Z,18.30
2018-08-23T09:40:55.172Z,18.30
2018-08-23T09:43:23.697Z,18.20
2018-08-23T09:45:53.467Z,18.30
2018-08-23T09:48:22.264Z,18.20
2018-08-23T09:50:50.964Z,18.20
2018-08-23T09:53:24.855Z,18.30
2018-08-23T09:55:54.905Z,18.30
2018-08-23T09:58:28.885Z,18.40
2018-08-23T10:01:02.721Z,18.40
2018-08-23T10:03:36.577Z,18.40
2018-08-23T10:06:10.367Z,18.40
2018-08-23T10:08:44.620Z,18.40
2018-08-23T10:11:20.186Z,18.40
2018-08-23T10:13:53.937Z,18.60
2018-08-23T10:16:27.780Z,18.60
2018-08-23T10:19:02.440Z,18.80
2018-08-23T10:21:36.193Z,18.90
2018-08-23T10:24:15.421Z,19.00
2018-08-23T10:26:43.973Z,19.10
2018-08-23T10:29:12.382Z,19.10
2018-08-23T10:31:40.937Z,19.20
2018-08-23T10:34:09.414Z,19.40
2018-08-23T10:36:37.874Z,19.40
2018-08-23T10:39:09.178Z,19.50
2018-08-23T10:41:37.737Z,19.50
2018-08-23T10:44:06.634Z,19.50
2018-08-23T10:46:40.530Z,19.60
2018-08-23T10:49:08.995Z,19.60
2018-08-23T10:51:37.460Z,19.60
2018-08-23T10:54:06.030Z,19.60
2018-08-23T10:56:34.477Z,19.60
2018-08-23T10:59:03.096Z,19.60
2018-08-23T11:01:31.556Z,19.70
2018-08-23T11:04:04.211Z,19.70
2018-08-23T11:06:32.783Z,19.80
2018-08-23T11:09:06.720Z,20.00
2018-08-23T11:11:36.753Z,20.20
2018-08-23T11:14:10.466Z,20.40
2018-08-23T11:16:44.398Z,20.40
2018-08-23T11:19:18.197Z,20.40
2018-08-23T11:21:46.678Z,20.40
2018-08-23T11:24:15.206Z,20.40
2018-08-23T11:26:43.761Z,20.40
2018-08-23T11:29:12.228Z,20.60
2018-08-23T11:31:40.726Z,20.90
2018-08-23T11:34:09.302Z,21.40
2018-08-23T11:36:37.754Z,22.20
2018-08-23T11:39:08.370Z,22.70
2018-08-23T11:41:36.850Z,23.50
2018-08-23T11:44:05.446Z,23.70
2018-08-23T11:46:33.913Z,24.10
2018-08-23T11:49:02.474Z,24.50
2018-08-23T11:51:30.983Z,24.70
2018-08-23T11:53:59.525Z,24.30
2018-08-23T11:56:27.978Z,24.00
2018-08-23T11:58:56.491Z,24.10
2018-08-23T12:01:24.936Z,23.90
2018-08-23T12:03:53.396Z,23.50
2018-08-23T12:06:21.946Z,23.30
2018-08-23T12:08:50.379Z,23.30
2018-08-23T12:11:18.870Z,23.50
2018-08-23T12:13:49.194Z,23.30
2018-08-23T12:16:17.785Z,23.10
2018-08-23T12:18:46.404Z,22.90
2018-08-23T12:21:15.001Z,22.90
2018-08-23T12:23:43.490Z,23.10
2018-08-23T12:26:12.081Z,23.20
2018-08-23T12:28:45.950Z,23.30
2018-08-23T12:31:14.461Z,23.70
2018-08-23T12:33:43.115Z,24.10
2018-08-23T12:36:12.929Z,24.60
2018-08-23T12:38:46.703Z,24.90
2018-08-23T12:41:20.666Z,25.00
2018-08-23T12:43:51.680Z,25.30
2018-08-23T12:46:20.211Z,25.70
2018-08-23T12:48:48.793Z,25.50
2018-08-23T12:51:17.598Z,25.10
2018-08-23T12:53:46.077Z,24.80
2018-08-23T12:56:14.550Z,24.60
2018-08-23T12:58:43.057Z,24.60
2018-08-23T13:01:11.556Z,24.80
2018-08-23T13:03:40.193Z,24.90
2018-08-23T13:06:08.622Z,24.80
2018-08-23T13:08:37.173Z,24.70
2018-08-23T13:11:05.833Z,24.50
2018-08-23T13:13:34.267Z,24.40
2018-08-23T13:16:02.917Z,24.20
2018-08-23T13:18:31.393Z,24.00
2018-08-23T13:20:59.848Z,24.10
2018-08-23T13:23:28.311Z,24.10
2018-08-23T13:25:58.171Z,24.00
2018-08-23T13:28:27.552Z,24.20
2018-08-23T13:30:56.021Z,24.50
2018-08-23T13:33:25.508Z,25.20
2018-08-23T13:35:53.979Z,25.80
2018-08-23T13:38:22.445Z,26.10
2018-08-23T13:40:50.935Z,26.60
2018-08-23T13:43:19.449Z,26.90
2018-08-23T13:45:47.942Z,27.00
2018-08-23T13:48:16.479Z,26.80
2018-08-23T13:50:45.032Z,26.50
2018-08-23T13:53:13.513Z,26.40
2018-08-23T13:55:42.125Z,26.40
2018-08-23T13:58:10.652Z,25.90
2018-08-23T14:00:40.005Z,25.40
2018-08-23T14:03:09.367Z,25.10
2018-08-23T14:05:39.422Z,24.80
2018-08-23T14:08:08.756Z,24.60
2018-08-23T14:10:37.359Z,24.40
2018-08-23T14:13:06.113Z,24.10
2018-08-23T14:15:39.839Z,23.80
2018-08-23T14:18:08.625Z,23.70
2018-08-23T14:20:37.085Z,23.80
2018-08-23T14:23:05.541Z,24.00
2018-08-23T14:25:34.127Z,24.10
2018-08-23T14:28:02.547Z,24.30
2018-08-23T14:30:31.040Z,24.30
2018-08-23T14:32:59.538Z,24.30
2018-08-23T14:35:27.996Z,24.20
2018-08-23T14:37:56.541Z,24.20
2018-08-23T14:40:25.137Z,24.20
2018-08-23T14:42:53.672Z,24.30
2018-08-23T14:45:27.624Z,24.40
2018-08-23T14:48:01.436Z,24.40
2018-08-23T14:50:29.902Z,24.40
2018-08-23T14:52:58.721Z,24.40
2018-08-23T14:55:32.440Z,24.50
2018-08-23T14:58:00.886Z,24.30
2018-08-23T15:00:29.593Z,24.20
2018-08-23T15:02:58.117Z,24.20
2018-08-23T15:05:26.582Z,24.10
2018-08-23T15:07:55.109Z,24.10
2018-08-23T15:10:23.693Z,24.00
2018-08-23T15:12:52.391Z,24.00
2018-08-23T15:15:25.151Z,24.00
2018-08-23T15:17:53.633Z,24.00
2018-08-23T15:20:22.233Z,24.00
2018-08-23T15:22:50.744Z,24.00
2018-08-23T15:25:19.304Z,23.90
2018-08-23T15:27:47.824Z,23.90
2018-08-23T15:30:16.292Z,23.80
2018-08-23T15:32:44.985Z,23.80
2018-08-23T15:35:13.443Z,23.80
2018-08-23T15:37:41.903Z,23.90
2018-08-23T15:40:10.402Z,23.80
2018-08-23T15:42:38.980Z,24.00
2018-08-23T15:45:09.157Z,24.00
2018-08-23T15:47:37.616Z,24.00
2018-08-23T15:50:06.262Z,24.00
2018-08-23T15:52:34.715Z,24.00
2018-08-23T15:55:03.355Z,24.00
2018-08-23T15:57:31.865Z,24.00
2018-08-23T16:00:00.331Z,23.90
2018-08-23T16:02:28.919Z,23.90
2018-08-23T16:04:57.468Z,24.00
2018-08-23T16:07:25.925Z,24.10
2018-08-23T16:09:54.469Z,24.00
2018-08-23T16:12:23.044Z,23.90
2018-08-23T16:14:51.633Z,23.70
2018-08-23T16:17:25.587Z,23.60
2018-08-23T16:19:59.480Z,23.50
2018-08-23T16:22:28.266Z,23.40
2018-08-23T16:24:56.849Z,23.30
2018-08-23T16:27:25.415Z,23.30
2018-08-23T16:29:54.303Z,23.30
2018-08-23T16:32:28.105Z,23.30
2018-08-23T16:34:56.599Z,23.40
2018-08-23T16:37:25.075Z,23.40
2018-08-23T16:39:53.559Z,23.30
2018-08-23T16:42:22.122Z,23.20
2018-08-23T16:44:50.675Z,23.10
2018-08-23T16:47:19.299Z,23.20
2018-08-23T16:49:48.000Z,23.20
2018-08-23T16:52:16.578Z,23.10
2018-08-23T16:54:45.270Z,23.10
2018-08-23T16:57:14.162Z,23.10
2018-08-23T16:59:42.831Z,23.10
2018-08-23T17:02:11.306Z,23.10
2018-08-23T17:04:43.384Z,23.10
2018-08-23T17:07:13.010Z,23.20
2018-08-23T17:09:41.506Z,23.20
2018-08-23T17:12:10.270Z,23.30
2018-08-23T17:14:38.758Z,23.30
2018-08-23T17:17:12.544Z,23.20
2018-08-23T17:19:41.153Z,23.00
2018-08-23T17:22:09.597Z,23.10
2018-08-23T17:24:38.164Z,23.00
2018-08-23T17:27:06.513Z,22.90
2018-08-23T17:29:34.942Z,22.80
2018-08-23T17:32:03.543Z,22.80
2018-08-23T17:34:32.109Z,22.60
2018-08-23T17:37:00.562Z,22.50
2018-08-23T17:39:29.026Z,22.40
2018-08-23T17:41:57.589Z,22.40
2018-08-23T17:44:26.049Z,22.30
2018-08-23T17:46:54.500Z,22.30
2018-08-23T17:49:23.077Z,22.20
2018-08-23T17:51:51.587Z,22.10
2018-08-23T17:54:20.078Z,22.10
2018-08-23T17:56:48.753Z,22.00
2018-08-23T17:59:17.256Z,22.00
2018-08-23T18:01:45.729Z,22.00
2018-08-23T18:04:14.266Z,22.00
2018-08-23T18:06:42.757Z,22.00
2018-08-23T18:09:12.829Z,21.90
2018-08-23T18:11:41.636Z,21.90
2018-08-23T18:14:10.393Z,21.90
2018-08-23T18:16:44.341Z,21.90
2018-08-23T18:19:13.305Z,21.80
2018-08-23T18:21:42.597Z,21.80
2018-08-23T18:24:11.506Z,21.80
2018-08-23T18:26:39.979Z,21.90
2018-08-23T18:29:08.440Z,21.90
2018-08-23T18:31:36.957Z,21.90
2018-08-23T18:34:05.652Z,21.90
2018-08-23T18:36:34.921Z,21.90
2018-08-23T18:39:04.789Z,21.90
2018-08-23T18:41:33.476Z,21.90
2018-08-23T18:44:02.023Z,21.90
2018-08-23T18:46:30.489Z,21.90
2018-08-23T18:49:00.001Z,21.80
2018-08-23T18:51:30.946Z,21.80
2018-08-23T18:54:00.171Z,21.80
2018-08-23T18:56:29.568Z,21.80
2018-08-23T18:58:58.554Z,21.80
2018-08-23T19:01:27.013Z,21.70
2018-08-23T19:03:55.527Z,21.70
2018-08-23T19:06:29.327Z,21.70
2018-08-23T19:08:57.776Z,21.70
2018-08-23T19:11:26.389Z,21.70
2018-08-23T19:13:54.874Z,21.70
2018-08-23T19:16:28.802Z,21.60
2018-08-23T19:18:57.334Z,21.60
2018-08-23T19:21:25.927Z,21.60
2018-08-23T19:23:54.553Z,21.60
2018-08-23T19:26:23.028Z,21.60
2018-08-23T19:28:51.526Z,21.60
2018-08-23T19:31:20.091Z,21.60
2018-08-23T19:33:48.635Z,21.60
2018-08-23T19:36:17.092Z,21.50
2018-08-23T19:38:45.602Z,21.50
2018-08-23T19:41:14.065Z,21.50
2018-08-23T19:43:42.577Z,21.50
2018-08-23T19:46:16.333Z,21.50
2018-08-23T19:48:46.249Z,21.50
2018-08-23T19:51:14.813Z,21.50
2018-08-23T19:53:43.407Z,21.40
2018-08-23T19:56:11.959Z,21.50
2018-08-23T19:58:40.537Z,21.40
2018-08-23T20:01:08.998Z,21.40
2018-08-23T20:03:37.494Z,21.40
2018-08-23T20:06:06.213Z,21.50
2018-08-23T20:08:34.710Z,21.40
2018-08-23T20:11:03.237Z,21.40
2018-08-23T20:13:31.720Z,21.40
2018-08-23T20:16:00.230Z,21.40
2018-08-23T20:18:28.782Z,21.40
2018-08-23T20:20:57.310Z,21.30
2018-08-23T20:23:26.497Z,21.30
2018-08-23T20:25:55.042Z,21.20
2018-08-23T20:28:23.597Z,21.20
2018-08-23T20:30:52.168Z,21.20
2018-08-23T20:33:20.610Z,21.10
2018-08-23T20:35:58.210Z,21.10
2018-08-23T20:38:26.656Z,21.00
2018-08-23T20:40:55.096Z,21.00
2018-08-23T20:43:23.683Z,20.90
2018-08-23T20:45:52.212Z,20.90
2018-08-23T20:48:20.652Z,20.90
2018-08-23T20:50:49.133Z,20.90
2018-08-23T20:53:17.670Z,20.90
2018-08-23T20:55:46.131Z,20.90
2018-08-23T20:58:14.784Z,21.00
2018-08-23T21:00:43.164Z,20.90
2018-08-23T21:03:11.838Z,20.70
2018-08-23T21:05:40.292Z,20.40
2018-08-23T21:08:08.866Z,20.00
2018-08-23T21:10:37.303Z,19.70
2018-08-23T21:13:05.822Z,19.40
2018-08-23T21:15:37.512Z,19.20
2018-08-23T21:18:08.616Z,19.00
2018-08-23T21:20:37.158Z,18.90
2018-08-23T21:23:05.850Z,18.90
2018-08-23T21:25:34.431Z,18.80
2018-08-23T21:28:02.966Z,18.70
2018-08-23T21:30:31.647Z,18.70
2018-08-23T21:33:00.200Z,18.70
2018-08-23T21:35:28.624Z,18.80
2018-08-23T21:37:57.129Z,18.80
2018-08-23T21:40:25.608Z,18.80
2018-08-23T21:42:54.061Z,18.70
2018-08-23T21:45:22.523Z,18.70
2018-08-23T21:47:50.981Z,18.60
2018-08-23T21:50:19.477Z,18.60
2018-08-23T21:52:48.001Z,18.50
2018-08-23T21:55:16.533Z,18.50
2018-08-23T21:57:44.991Z,18.50
2018-08-23T22:00:13.493Z,18.40
2018-08-23T22:02:41.986Z,18.40
2018-08-23T22:05:10.477Z,18.40
2018-08-23T22:07:39.101Z,18.30
2018-08-23T22:10:07.649Z,18.20
2018-08-23T22:12:36.043Z,18.10
2018-08-23T22:15:04.793Z,18.10
2018-08-23T22:17:33.337Z,18.00
2018-08-23T22:20:01.775Z,18.00
2018-08-23T22:22:30.213Z,18.00
2018-08-23T22:24:58.683Z,18.00
2018-08-23T22:27:27.151Z,18.00
2018-08-23T22:29:55.611Z,17.90
2018-08-23T22:32:24.063Z,17.90
2018-08-23T22:34:52.592Z,17.80
2018-08-23T22:37:21.020Z,17.80
2018-08-23T22:39:49.469Z,17.80
2018-08-23T22:42:17.916Z,17.80
2018-08-23T22:44:46.369Z,17.80
2018-08-23T22:47:14.843Z,17.80
2018-08-23T22:49:43.454Z,17.80
2018-08-23T22:52:12.013Z,17.80
2018-08-23T22:54:40.449Z,17.70
2018-08-23T22:57:08.906Z,17.70
2018-08-23T22:59:37.422Z,17.70
2018-08-23T23:02:06.031Z,17.70
2018-08-23T23:04:34.460Z,17.70
2018-08-23T23:07:07.286Z,17.70
2018-08-23T23:09:36.200Z,17.70
2018-08-23T23:12:04.658Z,17.70
2018-08-23T23:14:33.116Z,17.70
2018-08-23T23:17:05.799Z,17.70
2018-08-23T23:19:34.271Z,17.70
2018-08-23T23:22:02.929Z,17.70
2018-08-23T23:24:36.748Z,17.70
2018-08-23T23:27:05.623Z,17.70
2018-08-23T23:29:34.060Z,17.60
2018-08-23T23:32:02.776Z,17.60
2018-08-23T23:34:31.330Z,17.60
2018-08-23T23:36:59.812Z,17.60
2018-08-23T23:39:28.253Z,17.50
2018-08-23T23:41:56.704Z,17.40
2018-08-23T23:44:25.187Z,17.30
2018-08-23T23:46:53.602Z,17.30
2018-08-23T23:49:22.030Z,17.20
2018-08-23T23:51:50.497Z,17.10
2018-08-23T23:54:19.026Z,17.00
2018-08-23T23:56:47.561Z,16.90
2018-08-23T23:59:16.077Z,16.90
